UAE702 FIMP-OMDB
Flight info
| Callsign | UAE702 |
|---|---|
| Flight time | N/A |
| Altitude | 36000 |
| Route | ERBAB DCT MP203 DCT UTRUP DCT DUPNA DCT MP176 DCT DURDA/N0500F350 UT401 ALRAN UM313 RERUS/N0498F360 UM313 PRA/N0494F370 UM314 AXINA DCT SUHIL R401 VELIK/N0495F380 R401 PEDOG DCT IMPED IMPE3C |
| Aircraft | B77W/H-SDE1E2E3FGHIJ2J3J4J5M1RWXY/LB1D1 |
Departure
| Time | N/A |
|---|---|
| Airport | Sir Seewoosagur Ramgoolam International Airport (FIMP) |
Arrival
| Time | 2026-04-21 19:23 |
|---|---|
| Airport | Dubai International Airport (OMDB) |
| Time | Latitude | Longitude | Altitude | Speed | Heading |
|---|---|---|---|---|---|
| 2026-04-21 18:28 | 19.52641 | 56.16090 | 37856 ft | 453 kts | 7° |
| 2026-04-21 18:29 | 19.55728 | 56.16922 | 37852 ft | 455 kts | 7° |
| 2026-04-21 18:29 | 19.61857 | 56.18573 | 37858 ft | 455 kts | 7° |
| 2026-04-21 18:30 | 19.68021 | 56.20237 | 37861 ft | 453 kts | 7° |
| 2026-04-21 18:30 | 19.74137 | 56.21889 | 37860 ft | 453 kts | 7° |
| 2026-04-21 18:31 | 19.80282 | 56.23548 | 37856 ft | 456 kts | 7° |
| 2026-04-21 18:31 | 19.86410 | 56.25207 | 37858 ft | 456 kts | 7° |
| 2026-04-21 18:32 | 19.92549 | 56.26869 | 37859 ft | 453 kts | 7° |
| 2026-04-21 18:32 | 19.98672 | 56.28054 | 37847 ft | 443 kts | 356° |
| 2026-04-21 18:33 | 20.04831 | 56.28115 | 37850 ft | 442 kts | 354° |
| 2026-04-21 18:33 | 20.10995 | 56.28124 | 37858 ft | 442 kts | 354° |
| 2026-04-21 18:34 | 20.17190 | 56.28137 | 37864 ft | 440 kts | 354° |
| 2026-04-21 18:34 | 20.23313 | 56.28149 | 37857 ft | 442 kts | 354° |
| 2026-04-21 18:35 | 20.28452 | 56.28161 | 37861 ft | 443 kts | 354° |
| 2026-04-21 18:35 | 20.35649 | 56.28179 | 37853 ft | 440 kts | 354° |
| 2026-04-21 18:36 | 20.41823 | 56.28194 | 37849 ft | 442 kts | 354° |
| 2026-04-21 18:36 | 20.47990 | 56.28209 | 37847 ft | 441 kts | 354° |
| 2026-04-21 18:37 | 20.54174 | 56.28222 | 37837 ft | 442 kts | 353° |
| 2026-04-21 18:37 | 20.60224 | 56.27573 | 37835 ft | 439 kts | 347° |
| 2026-04-21 18:38 | 20.66273 | 56.26693 | 37832 ft | 436 kts | 347° |
| 2026-04-21 18:38 | 20.72292 | 56.25819 | 37828 ft | 435 kts | 347° |
| 2026-04-21 18:39 | 20.78295 | 56.24947 | 37827 ft | 436 kts | 347° |
| 2026-04-21 18:39 | 20.84368 | 56.24065 | 37820 ft | 437 kts | 346° |
| 2026-04-21 18:40 | 20.90430 | 56.23185 | 37816 ft | 438 kts | 347° |
| 2026-04-21 18:40 | 20.95432 | 56.22459 | 37819 ft | 437 kts | 347° |
| 2026-04-21 18:41 | 21.02519 | 56.21428 | 37812 ft | 440 kts | 346° |
| 2026-04-21 18:41 | 21.08551 | 56.20552 | 37810 ft | 438 kts | 347° |
| 2026-04-21 18:42 | 21.14656 | 56.19662 | 37815 ft | 441 kts | 347° |
| 2026-04-21 18:42 | 21.20726 | 56.18779 | 37813 ft | 439 kts | 346° |
| 2026-04-21 18:43 | 21.26782 | 56.17895 | 37806 ft | 439 kts | 347° |
| 2026-04-21 18:43 | 21.32887 | 56.17001 | 37801 ft | 441 kts | 347° |
| 2026-04-21 18:44 | 21.38956 | 56.16111 | 37802 ft | 441 kts | 347° |
| 2026-04-21 18:44 | 21.45050 | 56.15217 | 37806 ft | 439 kts | 347° |
| 2026-04-21 18:45 | 21.51120 | 56.14325 | 37798 ft | 442 kts | 346° |
| 2026-04-21 18:45 | 21.57185 | 56.13434 | 37799 ft | 438 kts | 347° |
| 2026-04-21 18:46 | 21.63258 | 56.12539 | 37792 ft | 440 kts | 346° |
| 2026-04-21 18:46 | 21.69351 | 56.11642 | 37785 ft | 441 kts | 346° |
| 2026-04-21 18:47 | 21.75420 | 56.10747 | 37784 ft | 442 kts | 347° |
| 2026-04-21 18:47 | 21.81539 | 56.09844 | 37792 ft | 442 kts | 347° |
| 2026-04-21 18:48 | 21.87684 | 56.08937 | 37796 ft | 442 kts | 347° |
| 2026-04-21 18:48 | 21.93783 | 56.08036 | 37793 ft | 442 kts | 347° |
| 2026-04-21 18:49 | 21.99900 | 56.07131 | 37797 ft | 444 kts | 346° |
| 2026-04-21 18:49 | 22.05018 | 56.06373 | 37798 ft | 444 kts | 347° |
| 2026-04-21 18:50 | 22.12171 | 56.05315 | 37809 ft | 444 kts | 347° |
| 2026-04-21 18:50 | 22.18315 | 56.04404 | 37809 ft | 447 kts | 347° |
| 2026-04-21 18:51 | 22.24473 | 56.03493 | 37807 ft | 445 kts | 346° |
| 2026-04-21 18:51 | 22.30654 | 56.02576 | 37808 ft | 446 kts | 346° |
| 2026-04-21 18:52 | 22.36789 | 56.01665 | 37810 ft | 444 kts | 346° |
| 2026-04-21 18:52 | 22.42931 | 56.00756 | 37810 ft | 447 kts | 347° |
| 2026-04-21 18:53 | 22.49115 | 55.99844 | 37811 ft | 446 kts | 347° |
| 2026-04-21 18:53 | 22.55276 | 55.98933 | 37812 ft | 448 kts | 346° |
| 2026-04-21 18:54 | 22.61445 | 55.98022 | 37810 ft | 447 kts | 346° |
| 2026-04-21 18:54 | 22.67637 | 55.97105 | 37813 ft | 449 kts | 347° |
| 2026-04-21 18:55 | 22.72821 | 55.96337 | 37811 ft | 451 kts | 346° |
| 2026-04-21 18:55 | 22.80059 | 55.95264 | 37801 ft | 450 kts | 347° |
| 2026-04-21 18:56 | 22.86299 | 55.94333 | 37801 ft | 450 kts | 346° |
| 2026-04-21 18:56 | 22.92517 | 55.93402 | 37811 ft | 449 kts | 346° |
| 2026-04-21 18:57 | 22.98758 | 55.92467 | 37817 ft | 452 kts | 346° |
| 2026-04-21 18:57 | 23.04963 | 55.91538 | 37813 ft | 448 kts | 346° |
| 2026-04-21 18:58 | 23.11207 | 55.90596 | 37826 ft | 451 kts | 346° |
| 2026-04-21 18:58 | 23.17411 | 55.89661 | 37830 ft | 450 kts | 346° |
| 2026-04-21 18:59 | 23.23652 | 55.88720 | 37831 ft | 451 kts | 346° |
| 2026-04-21 18:59 | 23.29896 | 55.87777 | 37832 ft | 451 kts | 346° |
| 2026-04-21 19:00 | 23.36145 | 55.86832 | 37793 ft | 449 kts | 346° |
| 2026-04-21 19:00 | 23.39221 | 55.86369 | 37178 ft | 447 kts | 346° |
| 2026-04-21 19:00 | 23.42264 | 55.85907 | 36312 ft | 450 kts | 347° |
| 2026-04-21 19:00 | 23.45426 | 55.85427 | 35546 ft | 451 kts | 347° |
| 2026-04-21 19:01 | 23.48519 | 55.84958 | 34795 ft | 452 kts | 347° |
| 2026-04-21 19:01 | 23.51643 | 55.84484 | 33989 ft | 454 kts | 347° |
| 2026-04-21 19:01 | 23.54783 | 55.84008 | 33177 ft | 455 kts | 347° |
| 2026-04-21 19:01 | 23.57943 | 55.83526 | 32373 ft | 468 kts | 348° |
| 2026-04-21 19:02 | 23.61279 | 55.83014 | 31472 ft | 495 kts | 349° |
| 2026-04-21 19:02 | 23.64721 | 55.82489 | 30542 ft | 503 kts | 349° |
| 2026-04-21 19:02 | 23.68203 | 55.81985 | 29978 ft | 498 kts | 352° |
| 2026-04-21 19:02 | 23.71670 | 55.81908 | 29491 ft | 498 kts | 1° |
| 2026-04-21 19:03 | 23.75137 | 55.82208 | 28922 ft | 499 kts | 3° |
| 2026-04-21 19:03 | 23.78593 | 55.82562 | 28319 ft | 496 kts | 3° |
| 2026-04-21 19:03 | 23.82002 | 55.82917 | 27726 ft | 492 kts | 3° |
| 2026-04-21 19:03 | 23.85397 | 55.83271 | 27126 ft | 487 kts | 3° |
| 2026-04-21 19:04 | 23.88767 | 55.83622 | 26532 ft | 483 kts | 3° |
| 2026-04-21 19:04 | 23.92087 | 55.83969 | 25939 ft | 479 kts | 3° |
| 2026-04-21 19:04 | 23.95400 | 55.84316 | 25338 ft | 475 kts | 2° |
| 2026-04-21 19:04 | 23.98694 | 55.84660 | 24736 ft | 471 kts | 2° |
| 2026-04-21 19:05 | 24.01945 | 55.85000 | 24121 ft | 468 kts | 2° |
| 2026-04-21 19:05 | 24.05161 | 55.85337 | 23497 ft | 464 kts | 2° |
| 2026-04-21 19:05 | 24.08363 | 55.85673 | 22888 ft | 459 kts | 2° |
| 2026-04-21 19:05 | 24.11546 | 55.86006 | 22283 ft | 455 kts | 2° |
| 2026-04-21 19:06 | 24.14670 | 55.86334 | 21683 ft | 451 kts | 2° |
| 2026-04-21 19:06 | 24.17795 | 55.86662 | 21073 ft | 447 kts | 2° |
| 2026-04-21 19:06 | 24.20864 | 55.86984 | 20472 ft | 443 kts | 2° |
| 2026-04-21 19:06 | 24.23931 | 55.87306 | 19865 ft | 439 kts | 2° |
| 2026-04-21 19:07 | 24.26961 | 55.87625 | 19257 ft | 435 kts | 2° |
| 2026-04-21 19:07 | 24.29941 | 55.87938 | 18671 ft | 431 kts | 2° |
| 2026-04-21 19:07 | 24.32915 | 55.88377 | 18062 ft | 428 kts | 6° |
| 2026-04-21 19:07 | 24.35808 | 55.88899 | 17449 ft | 422 kts | 4° |
| 2026-04-21 19:08 | 24.38718 | 55.89024 | 16861 ft | 411 kts | 354° |
| 2026-04-21 19:08 | 24.41523 | 55.88775 | 16350 ft | 403 kts | 352° |
| 2026-04-21 19:08 | 24.44309 | 55.88481 | 15798 ft | 397 kts | 352° |
| 2026-04-21 19:08 | 24.47024 | 55.88189 | 15239 ft | 392 kts | 352° |
| 2026-04-21 19:09 | 24.49740 | 55.87894 | 14646 ft | 389 kts | 352° |
| 2026-04-21 19:09 | 24.52436 | 55.87598 | 13944 ft | 388 kts | 352° |
| 2026-04-21 19:09 | 24.55128 | 55.87302 | 13303 ft | 386 kts | 352° |
| 2026-04-21 19:09 | 24.57783 | 55.87009 | 12817 ft | 380 kts | 352° |
| 2026-04-21 19:10 | 24.60387 | 55.86721 | 12321 ft | 375 kts | 352° |
| 2026-04-21 19:10 | 24.62968 | 55.86435 | 11776 ft | 371 kts | 352° |
| 2026-04-21 19:10 | 24.65542 | 55.86150 | 11180 ft | 367 kts | 352° |
| 2026-04-21 19:10 | 24.68044 | 55.85871 | 10627 ft | 357 kts | 353° |
| 2026-04-21 19:11 | 24.70448 | 55.85605 | 10364 ft | 337 kts | 353° |
| 2026-04-21 19:11 | 24.72720 | 55.85352 | 10236 ft | 316 kts | 353° |
| 2026-04-21 19:11 | 24.74843 | 55.85115 | 10178 ft | 302 kts | 352° |
| 2026-04-21 19:11 | 24.76921 | 55.84862 | 10043 ft | 296 kts | 347° |
| 2026-04-21 19:12 | 24.78202 | 55.84412 | 9975 ft | 285 kts | 332° |
| 2026-04-21 19:12 | 24.80454 | 55.83018 | 9701 ft | 276 kts | 328° |
| 2026-04-21 19:12 | 24.82118 | 55.81936 | 9328 ft | 277 kts | 328° |
| 2026-04-21 19:12 | 24.83788 | 55.80847 | 8968 ft | 278 kts | 328° |
| 2026-04-21 19:13 | 24.85439 | 55.79771 | 8617 ft | 278 kts | 328° |
| 2026-04-21 19:13 | 24.87108 | 55.78683 | 8284 ft | 277 kts | 328° |
| 2026-04-21 19:13 | 24.88768 | 55.77599 | 7935 ft | 277 kts | 328° |
| 2026-04-21 19:13 | 24.90444 | 55.76505 | 7591 ft | 277 kts | 328° |
| 2026-04-21 19:14 | 24.92096 | 55.75426 | 7241 ft | 277 kts | 328° |
| 2026-04-21 19:14 | 24.93753 | 55.74344 | 6907 ft | 277 kts | 329° |
| 2026-04-21 19:14 | 24.95398 | 55.73269 | 6630 ft | 273 kts | 329° |
| 2026-04-21 19:14 | 24.97011 | 55.72214 | 6609 ft | 259 kts | 329° |
| 2026-04-21 19:15 | 24.98518 | 55.71228 | 6424 ft | 251 kts | 328° |
| 2026-04-21 19:15 | 25.00026 | 55.70242 | 6056 ft | 249 kts | 329° |
| 2026-04-21 19:15 | 25.01498 | 55.69277 | 5777 ft | 245 kts | 329° |
| 2026-04-21 19:15 | 25.02956 | 55.68322 | 5510 ft | 240 kts | 329° |
| 2026-04-21 19:16 | 25.04360 | 55.67401 | 5365 ft | 224 kts | 329° |
| 2026-04-21 19:16 | 25.05669 | 55.66542 | 5280 ft | 217 kts | 329° |
| 2026-04-21 19:16 | 25.06948 | 55.65702 | 5162 ft | 209 kts | 329° |
| 2026-04-21 19:16 | 25.08183 | 55.64890 | 4995 ft | 204 kts | 329° |
| 2026-04-21 19:17 | 25.10474 | 55.63090 | 4617 ft | 203 kts | 308° |
| 2026-04-21 19:17 | 25.11204 | 55.61750 | 4386 ft | 205 kts | 301° |
| 2026-04-21 19:17 | 25.11903 | 55.60386 | 4146 ft | 204 kts | 302° |
| 2026-04-21 19:18 | 25.12625 | 55.59050 | 3907 ft | 202 kts | 303° |
| 2026-04-21 19:18 | 25.13361 | 55.57732 | 3664 ft | 201 kts | 304° |
| 2026-04-21 19:18 | 25.14095 | 55.56435 | 3422 ft | 199 kts | 304° |
| 2026-04-21 19:18 | 25.14829 | 55.55143 | 3178 ft | 198 kts | 304° |
| 2026-04-21 19:19 | 25.15559 | 55.53848 | 2923 ft | 196 kts | 304° |
| 2026-04-21 19:19 | 25.16266 | 55.52586 | 2680 ft | 193 kts | 304° |
| 2026-04-21 19:19 | 25.16966 | 55.51338 | 2445 ft | 187 kts | 304° |
| 2026-04-21 19:19 | 25.17631 | 55.50150 | 2220 ft | 180 kts | 304° |
| 2026-04-21 19:20 | 25.18282 | 55.48985 | 1989 ft | 172 kts | 304° |
| 2026-04-21 19:20 | 25.18891 | 55.47893 | 1758 ft | 164 kts | 304° |
| 2026-04-21 19:20 | 25.19476 | 55.46850 | 1536 ft | 155 kts | 304° |
| 2026-04-21 19:20 | 25.20042 | 55.45828 | 1321 ft | 153 kts | 304° |
| 2026-04-21 19:21 | 25.20601 | 55.44835 | 1089 ft | 151 kts | 304° |
| 2026-04-21 19:21 | 25.21151 | 55.43855 | 886 ft | 150 kts | 304° |
| 2026-04-21 19:21 | 25.21702 | 55.42881 | 688 ft | 148 kts | 304° |
| 2026-04-21 19:21 | 25.22247 | 55.41912 | 499 ft | 148 kts | 304° |
| 2026-04-21 19:22 | 25.22788 | 55.40934 | 351 ft | 150 kts | 304° |
| 2026-04-21 19:22 | 25.23333 | 55.39955 | 170 ft | 148 kts | 304° |
| 2026-04-21 19:22 | 25.23866 | 55.38994 | 47 ft | 138 kts | 304° |
| 2026-04-21 19:22 | 25.24288 | 55.38238 | 45 ft | 91 kts | 302° |
| 2026-04-21 19:23 | 25.24531 | 55.37791 | 45 ft | 52 kts | 303° |
| 2026-04-21 19:23 | 25.24636 | 55.37598 | 45 ft | 28 kts | 301° |
| 2026-04-21 19:23 | 25.24748 | 55.37372 | 45 ft | 37 kts | 294° |
| 2026-04-21 19:23 | 25.24791 | 55.37188 | 45 ft | 12 kts | 271° |
| 2026-04-21 19:24 | 25.24789 | 55.37098 | 45 ft | 10 kts | 268° |
| 2026-04-21 19:24 | 25.24788 | 55.37065 | 45 ft | 3 kts | 269° |
| 2026-04-21 19:24 | 25.24788 | 55.37048 | 45 ft | 0 kts | 264° |
| 2026-04-21 19:24 | 25.24787 | 55.37045 | 45 ft | 0 kts | 253° |
| 2026-04-21 19:25 | 25.24785 | 55.37043 | 45 ft | 0 kts | 238° |
| 2026-04-21 19:25 | 25.24783 | 55.37040 | 45 ft | 0 kts | 223° |
| 2026-04-21 19:25 | 25.24745 | 55.37030 | 45 ft | 13 kts | 182° |
| 2026-04-21 19:25 | 25.24691 | 55.37035 | 45 ft | 3 kts | 192° |
| 2026-04-21 19:26 | 25.24653 | 55.36961 | 45 ft | 16 kts | 253° |
| 2026-04-21 19:26 | 25.24602 | 55.36855 | 45 ft | 15 kts | 226° |
| 2026-04-21 19:26 | 25.24520 | 55.36787 | 45 ft | 14 kts | 214° |
| 2026-04-21 19:26 | 25.24439 | 55.36736 | 45 ft | 11 kts | 194° |
| 2026-04-21 19:27 | 25.24365 | 55.36756 | 45 ft | 10 kts | 141° |
| 2026-04-21 19:27 | 25.24322 | 55.36822 | 45 ft | 10 kts | 120° |
| 2026-04-21 19:27 | 25.24301 | 55.36872 | 45 ft | 2 kts | 82° |
| 2026-04-21 19:27 | 25.24317 | 55.36892 | 45 ft | 3 kts | 34° |
| 2026-04-21 19:28 | 25.24338 | 55.36907 | 45 ft | 3 kts | 31° |
| 2026-04-21 19:28 | 25.24360 | 55.36921 | 45 ft | 3 kts | 32° |
| 2026-04-21 19:28 | 25.24375 | 55.36931 | 45 ft | 1 kts | 31° |
| 2026-04-21 19:28 | 25.24380 | 55.36935 | 45 ft | 0 kts | 31° |